Cielo Di Seto — H3DM — position and weather

sailwx.info

Track history (hours):
 
Tides and Currents Weather Stations Pressure Air Temp Water Temp Dewpoint Dewpoint Depression Visibility Wind Speed Wind Dir Waves Ship Positions

Cielo Di Seto

Last reported at 2017-Aug-18 08:20 UTC. Time now 2017-Sep-25 19:06 UTC.
Position N 25°32' W 079°33'.
Warning: this ship's position is 38 days out of date.

Length 183 m; draft 10.2 m.

Type: Cargo ship. MMSI: 372533000.

Date/timePositionNaut miles runAvg speedWind from/ knotsBaromVisibWave heightAir tempDewpointWater temp
2017-Aug-18 08:20N 25°32' W 079°33'511.6
2017-Aug-18 07:53N 25°37' W 079°32'811.5
2017-Aug-18 07:13N 25°45' W 079°30'411.6
2017-Aug-18 06:52N 25°49' W 079°30'411.6
2017-Aug-18 06:30N 25°53' W 079°30'2111.8
2017-Aug-18 04:45N 26°14' W 079°27'311.7
2017-Aug-18 04:30N 26°16' W 079°27'2611.8
2017-Aug-18 02:17N 26°42' W 079°25'511.8
2017-Aug-18 01:53N 26°47' W 079°25'  
Track history (hours):
 
Tides and Currents Weather Stations Pressure Air Temp Water Temp Dewpoint Dewpoint Depression Visibility Wind Speed Wind Dir Waves Ship Positions

Cielo Di Seto

Last reported at 2017-Aug-18 08:20 UTC. Time now 2017-Sep-25 19:06 UTC.
Position N 25°32' W 079°33'.
Warning: this ship's position is 38 days out of date.

Length 183 m; draft 10.2 m.

Type: Cargo ship. MMSI: 372533000.

Date/timePositionNaut miles runAvg speedWind from/ knotsBaromVisibWave heightAir tempDewpointWater temp
2017-Aug-18 08:20N 25°32' W 079°33'511.6
2017-Aug-18 07:53N 25°37' W 079°32'811.5
2017-Aug-18 07:13N 25°45' W 079°30'411.6
2017-Aug-18 06:52N 25°49' W 079°30'411.6
2017-Aug-18 06:30N 25°53' W 079°30'2111.8
2017-Aug-18 04:45N 26°14' W 079°27'311.7
2017-Aug-18 04:30N 26°16' W 079°27'2611.8
2017-Aug-18 02:17N 26°42' W 079°25'511.8
2017-Aug-18 01:53N 26°47' W 079°25'  

Dump ship's entire track history